Time;durP1;ratioP1;P1;durP2;ratioP2;P2;SDS_P1;SDS_P2;PMS_P1;PMS_P2;Temp;Humidity;BMP_temperature;BMP_pressure;BME280_temperature;BME280_humidity;BME280_pressure;Samples;Min_cycle;Max_cycle;Signal;HPM_P1;HPM_P2
2022/06/29 00:02:03;;;;;;;0.30;0.30;;;;;;;10.52;100.00;100036.44;5008723;28;20045;-80
2022/06/29 00:04:29;;;;;;;0.30;0.30;;;;;;;10.40;100.00;100032.59;4976329;28;20141;-79
2022/06/29 00:06:55;;;;;;;0.30;0.30;;;;;;;10.30;100.00;100032.09;4982017;28;20026;-79
2022/06/29 00:09:23;;;;;;;0.30;0.30;;;;;;;10.18;100.00;100033.59;4996790;28;20030;-80
2022/06/29 00:11:49;;;;;;;0.30;0.30;;;;;;;10.06;100.00;100044.84;4995867;28;20026;-80
2022/06/29 00:14:14;;;;;;;0.30;0.30;;;;;;;9.95;100.00;100037.28;4987476;28;20038;-78
2022/06/29 00:16:46;;;;;;;0.30;0.30;;;;;;;9.80;100.00;100040.00;5003473;28;20029;-79
2022/06/29 00:19:11;;;;;;;0.30;0.30;;;;;;;9.63;100.00;100042.06;4973373;28;20045;-79
2022/06/29 00:21:37;;;;;;;0.30;0.30;;;;;;;9.52;100.00;100022.91;4967089;28;20042;-78
2022/06/29 00:24:03;;;;;;;0.30;0.30;;;;;;;9.46;100.00;100030.69;5001223;28;20426;-77
2022/06/29 00:26:31;;;;;;;0.30;0.30;;;;;;;9.50;100.00;100044.59;4997249;28;20034;-79
2022/06/29 00:28:56;;;;;;;0.30;0.30;;;;;;;9.42;100.00;100039.28;4996499;28;20050;-79
2022/06/29 00:31:22;;;;;;;0.30;0.30;;;;;;;9.49;100.00;100045.56;5002874;28;20034;-78
2022/06/29 00:33:47;;;;;;;0.30;0.30;;;;;;;9.47;100.00;100036.88;4987292;28;20502;-77
2022/06/29 00:36:13;;;;;;;0.30;0.30;;;;;;;9.46;100.00;100037.91;4970179;28;20502;-79
2022/06/29 00:38:39;;;;;;;0.30;0.30;;;;;;;9.41;100.00;100043.81;5003432;28;20041;-79
2022/06/29 00:41:04;;;;;;;0.30;0.30;;;;;;;9.36;100.00;100050.75;4997917;28;20088;-80
2022/06/29 00:43:42;;;;;;;0.30;0.30;;;;;;;9.08;100.00;100008.50;5001510;28;20037;-78
2022/06/29 00:46:07;;;;;;;0.30;0.30;;;;;;;9.22;100.00;100039.84;5001849;28;20030;-78
2022/06/29 00:48:33;;;;;;;0.30;0.30;;;;;;;9.08;100.00;100019.22;5007719;28;20038;-79
2022/06/29 00:51:01;;;;;;;0.30;0.30;;;;;;;9.08;100.00;100024.59;5005066;28;20036;-78
2022/06/29 00:53:27;;;;;;;0.30;0.30;;;;;;;9.07;100.00;100027.44;4996969;28;20034;-80
2022/06/29 00:55:55;;;;;;;0.30;0.30;;;;;;;9.08;100.00;100035.31;5004104;28;20113;-77
2022/06/29 00:58:22;;;;;;;0.30;0.30;;;;;;;9.15;100.00;100033.53;4985620;28;20026;-78
2022/06/29 01:00:48;;;;;;;0.30;0.30;;;;;;;9.23;100.00;100043.34;5000635;28;20064;-80
2022/06/29 01:03:13;;;;;;;0.30;0.30;;;;;;;9.19;100.00;100031.34;4993303;28;20069;-78
2022/06/29 01:05:39;;;;;;;0.30;0.30;;;;;;;9.14;100.00;100039.94;4986626;28;20038;-79
2022/06/29 01:08:05;;;;;;;0.30;0.30;;;;;;;9.09;100.00;100042.34;5006596;28;20853;-78
2022/06/29 01:10:30;;;;;;;0.30;0.30;;;;;;;9.02;100.00;100046.75;5005803;28;20451;-79
2022/06/29 01:12:56;;;;;;;0.30;0.30;;;;;;;8.94;100.00;100031.59;4971513;28;20805;-80
2022/06/29 01:15:21;;;;;;;0.30;0.30;;;;;;;9.04;100.00;100039.38;4995839;28;20453;-79
2022/06/29 01:17:48;;;;;;;0.30;0.30;;;;;;;9.09;100.00;100041.50;4993425;28;20078;-79
2022/06/29 01:20:14;;;;;;;0.30;0.30;;;;;;;9.13;100.00;100034.75;5001819;28;20133;-78
2022/06/29 01:22:40;;;;;;;0.38;0.38;;;;;;;9.23;100.00;100036.16;5000006;28;20467;-78
2022/06/29 01:25:06;;;;;;;0.30;0.30;;;;;;;9.24;100.00;100040.50;4957110;28;20121;-79
2022/06/29 01:27:32;;;;;;;0.30;0.30;;;;;;;9.30;100.00;100040.78;4982718;28;20113;-80
2022/06/29 01:29:58;;;;;;;0.30;0.30;;;;;;;9.44;100.00;100039.94;4992009;28;20129;-80
2022/06/29 01:32:24;;;;;;;0.30;0.30;;;;;;;9.53;100.00;100044.19;4972772;28;20084;-79
2022/06/29 01:34:50;;;;;;;0.30;0.30;;;;;;;9.58;100.00;100049.84;5003996;28;20026;-79
2022/06/29 01:37:16;;;;;;;0.40;0.40;;;;;;;9.59;100.00;100051.50;4967634;28;20062;-81
2022/06/29 01:39:42;;;;;;;0.40;0.40;;;;;;;9.63;100.00;100041.22;4985437;28;20072;-76
2022/06/29 01:42:08;;;;;;;0.30;0.30;;;;;;;9.72;100.00;100042.78;4999936;28;20036;-79
2022/06/29 01:44:35;;;;;;;0.30;0.30;;;;;;;9.76;100.00;100046.75;4987121;28;20037;-78
2022/06/29 01:47:01;;;;;;;0.30;0.30;;;;;;;9.69;100.00;100021.69;5002678;28;20562;-78
2022/06/29 01:49:28;;;;;;;0.30;0.30;;;;;;;9.74;100.00;100032.69;5005664;28;20108;-78
2022/06/29 01:51:56;;;;;;;0.30;0.30;;;;;;;9.90;100.00;100045.06;5011906;28;20466;-78
2022/06/29 01:54:22;;;;;;;0.30;0.30;;;;;;;9.86;100.00;100041.09;4977572;28;20026;-76
2022/06/29 01:56:48;;;;;;;0.30;0.30;;;;;;;9.90;100.00;100043.22;4999046;28;20029;-78
2022/06/29 01:59:14;;;;;;;0.30;0.30;;;;;;;9.96;100.00;100059.59;5007490;28;20163;-78
2022/06/29 02:01:40;;;;;;;0.30;0.30;;;;;;;9.98;100.00;100054.88;4975592;28;20045;-79
2022/06/29 02:04:06;;;;;;;0.30;0.30;;;;;;;10.01;100.00;100059.84;5007582;28;20514;-79
2022/06/29 02:06:31;;;;;;;0.30;0.30;;;;;;;10.00;100.00;100064.41;4972239;28;20040;-78
2022/06/29 02:08:57;;;;;;;0.30;0.30;;;;;;;10.02;100.00;100056.13;5004799;28;20037;-78
2022/06/29 02:11:23;;;;;;;0.30;0.30;;;;;;;10.04;100.00;100049.56;5008379;28;20419;-78
2022/06/29 02:13:50;;;;;;;0.30;0.30;;;;;;;9.97;100.00;100042.44;4999741;28;20083;-79
2022/06/29 02:16:15;;;;;;;0.32;0.32;;;;;;;9.96;100.00;100041.63;4984747;28;20121;-79
2022/06/29 02:18:42;;;;;;;0.30;0.30;;;;;;;9.99;100.00;100054.66;4988786;28;20502;-80
2022/06/29 02:21:08;;;;;;;0.30;0.30;;;;;;;10.01;100.00;100060.69;5012491;28;20124;-80
2022/06/29 02:23:34;;;;;;;0.30;0.30;;;;;;;10.02;100.00;100073.06;4995382;28;20120;-77
2022/06/29 02:25:59;;;;;;;0.30;0.30;;;;;;;9.99;100.00;100062.72;5006402;28;20121;-79
2022/06/29 02:28:25;;;;;;;0.30;0.30;;;;;;;9.94;100.00;100051.72;4971686;28;20049;-78
2022/06/29 02:36:19;;;;;;;0.30;0.30;;;;;;;9.94;100.00;100059.75;5005705;28;20489;-78
2022/06/29 02:38:44;;;;;;;0.30;0.30;;;;;;;9.88;100.00;100052.47;5002318;28;20124;-77
2022/06/29 02:41:10;;;;;;;0.30;0.30;;;;;;;9.86;100.00;100057.19;5005877;28;20543;-80
2022/06/29 02:43:37;;;;;;;0.30;0.30;;;;;;;9.80;100.00;100050.72;4987980;28;20065;-81
2022/06/29 02:46:02;;;;;;;0.30;0.30;;;;;;;9.79;100.00;100051.75;5005311;28;20068;-81
2022/06/29 02:48:28;;;;;;;0.30;0.30;;;;;;;9.77;100.00;100052.97;5011745;28;20065;-79
2022/06/29 02:50:54;;;;;;;0.30;0.30;;;;;;;9.67;100.00;100043.34;5005650;28;20042;-82
2022/06/29 02:53:20;;;;;;;0.30;0.30;;;;;;;9.68;100.00;100058.44;4984137;28;20120;-80
2022/06/29 02:55:45;;;;;;;0.30;0.30;;;;;;;9.63;100.00;100051.94;4991811;28;20426;-79
2022/06/29 02:58:11;;;;;;;0.30;0.30;;;;;;;9.67;100.00;100050.56;4999945;28;20032;-80
2022/06/29 03:00:36;;;;;;;0.30;0.30;;;;;;;9.71;100.00;100062.56;5011457;28;20542;-79
2022/06/29 03:03:02;;;;;;;0.30;0.30;;;;;;;9.72;100.00;100050.84;5002087;28;20023;-79
2022/06/29 03:05:28;;;;;;;0.30;0.30;;;;;;;9.74;100.00;100064.91;5002818;28;20060;-79
2022/06/29 03:07:53;;;;;;;0.30;0.30;;;;;;;9.68;100.00;100055.75;4964564;28;20228;-78
2022/06/29 03:10:19;;;;;;;0.30;0.30;;;;;;;9.61;100.00;100054.00;5005210;28;20049;-81
2022/06/29 03:12:44;;;;;;;0.30;0.30;;;;;;;9.45;100.00;100060.41;4985309;28;20045;-79
2022/06/29 03:15:10;;;;;;;0.30;0.30;;;;;;;9.30;100.00;100071.13;5003677;28;20034;-80
2022/06/29 03:17:36;;;;;;;0.30;0.30;;;;;;;9.11;100.00;100061.78;4990071;28;20037;-78
2022/06/29 03:20:04;;;;;;;0.30;0.30;;;;;;;9.01;100.00;100058.50;5005588;28;20474;-78
2022/06/29 03:22:31;;;;;;;0.40;0.40;;;;;;;8.90;100.00;100062.47;4987450;28;20041;-80
2022/06/29 03:24:56;;;;;;;0.30;0.30;;;;;;;8.87;100.00;100065.53;5018409;28;20030;-76
2022/06/29 03:27:22;;;;;;;0.30;0.30;;;;;;;8.83;100.00;100071.41;4980819;28;20033;-78
2022/06/29 03:29:47;;;;;;;0.30;0.30;;;;;;;8.74;100.00;100068.81;5014222;28;20656;-77
2022/06/29 03:32:15;;;;;;;0.30;0.30;;;;;;;8.66;100.00;100060.84;4967180;28;20042;-80
2022/06/29 03:34:41;;;;;;;0.30;0.30;;;;;;;8.70;100.00;100078.22;4985525;28;20034;-79
2022/06/29 03:37:07;;;;;;;0.30;0.30;;;;;;;8.55;100.00;100074.69;4971564;28;20042;-80
2022/06/29 03:39:34;;;;;;;0.30;0.30;;;;;;;8.44;100.00;100069.72;4981557;28;20053;-78
2022/06/29 03:42:00;;;;;;;0.30;0.30;;;;;;;8.41;100.00;100073.59;5004293;28;20034;-77
2022/06/29 03:44:28;;;;;;;0.30;0.30;;;;;;;8.39;100.00;100075.63;4972051;28;20030;-79
2022/06/29 03:46:54;;;;;;;0.38;0.38;;;;;;;8.19;100.00;100075.22;5007291;28;20046;-78
2022/06/29 03:49:20;;;;;;;0.32;0.32;;;;;;;8.08;100.00;100063.06;5005089;28;20408;-77
2022/06/29 03:51:45;;;;;;;0.30;0.30;;;;;;;8.01;100.00;100072.81;5003370;28;20041;-78
2022/06/29 03:54:11;;;;;;;0.30;0.30;;;;;;;7.87;100.00;100066.38;5000473;28;20038;-77
2022/06/29 03:56:36;;;;;;;0.30;0.30;;;;;;;7.83;100.00;100069.56;5011015;28;20029;-79
2022/06/29 03:59:02;;;;;;;0.30;0.30;;;;;;;7.72;100.00;100073.44;5005166;28;20099;-77
2022/06/29 04:01:28;;;;;;;0.35;0.35;;;;;;;7.62;100.00;100080.84;4997244;28;20040;-79
2022/06/29 04:03:53;;;;;;;0.30;0.30;;;;;;;7.63;100.00;100074.50;5007106;28;20048;-78
2022/06/29 04:06:19;;;;;;;0.30;0.30;;;;;;;7.69;100.00;100085.34;4974567;28;20036;-78
2022/06/29 04:08:45;;;;;;;0.30;0.30;;;;;;;7.60;100.00;100082.88;4969318;28;20177;-80
2022/06/29 04:13:55;;;;;;;0.30;0.30;;;;;;;7.61;100.00;100090.72;4995544;28;20049;-80
2022/06/29 04:16:20;;;;;;;0.30;0.30;;;;;;;7.56;100.00;100077.03;5000268;28;20030;-79
2022/06/29 04:18:46;;;;;;;0.30;0.30;;;;;;;7.68;100.00;100088.22;4988265;28;20029;-81
2022/06/29 04:21:12;;;;;;;0.30;0.30;;;;;;;7.76;100.00;100093.53;4998907;28;20037;-79
2022/06/29 04:23:38;;;;;;;0.30;0.30;;;;;;;7.82;100.00;100094.66;4980619;28;20034;-77
2022/06/29 04:26:03;;;;;;;0.38;0.38;;;;;;;7.81;100.00;100083.13;4967555;28;20042;-79
2022/06/29 04:28:29;;;;;;;0.30;0.30;;;;;;;7.65;100.00;100096.59;4985655;28;20395;-77
2022/06/29 04:30:54;;;;;;;0.30;0.30;;;;;;;7.43;100.00;100096.28;5001464;28;20168;-80
2022/06/29 04:33:20;;;;;;;0.30;0.30;;;;;;;7.39;100.00;100089.63;5006004;28;20042;-80
2022/06/29 04:35:45;;;;;;;0.30;0.30;;;;;;;7.22;100.00;100088.84;4985496;28;20038;-79
2022/06/29 04:38:11;;;;;;;0.30;0.30;;;;;;;7.21;100.00;100081.00;4999478;28;21345;-78
2022/06/29 04:40:37;;;;;;;0.40;0.40;;;;;;;7.27;100.00;100091.81;4996476;28;20038;-78
2022/06/29 04:43:02;;;;;;;0.40;0.40;;;;;;;7.48;100.00;100082.41;4967076;28;20525;-80
2022/06/29 04:48:20;;;;;;;0.40;0.40;;;;;;;8.23;100.00;100097.13;4967759;28;20050;-78
2022/06/29 04:50:46;;;;;;;0.35;0.35;;;;;;;8.49;100.00;100076.19;4999989;28;20030;-78
2022/06/29 04:53:11;;;;;;;0.30;0.30;;;;;;;8.87;100.00;100094.19;5011906;28;20334;-80
2022/06/29 04:55:37;;;;;;;0.30;0.30;;;;;;;9.10;100.00;100094.13;4970643;28;20187;-79
2022/06/29 04:58:02;;;;;;;0.40;0.40;;;;;;;9.26;100.00;100099.31;4970641;28;20045;-77
2022/06/29 05:00:28;;;;;;;0.30;0.30;;;;;;;9.38;100.00;100099.72;4988331;28;20037;-77
2022/06/29 05:02:54;;;;;;;0.40;0.40;;;;;;;9.42;100.00;100103.69;5009043;28;20944;-80
2022/06/29 05:05:19;;;;;;;0.30;0.30;;;;;;;9.46;100.00;100099.63;4970428;28;20045;-80
2022/06/29 05:07:45;;;;;;;0.40;0.40;;;;;;;9.54;100.00;100101.38;4969650;28;20034;-78
2022/06/29 05:10:11;;;;;;;0.30;0.30;;;;;;;9.57;100.00;100101.84;4967311;28;20430;-81
2022/06/29 05:12:38;;;;;;;0.30;0.30;;;;;;;9.57;100.00;100098.31;4988723;28;20026;-76
2022/06/29 05:15:06;;;;;;;0.30;0.30;;;;;;;9.57;100.00;100107.22;5008457;28;20038;-77
2022/06/29 05:17:36;;;;;;;0.30;0.30;;;;;;;9.55;100.00;100095.84;5005842;28;20060;-77
2022/06/29 05:20:07;;;;;;;0.30;0.30;;;;;;;9.67;100.00;100102.41;5015515;28;20074;-79
2022/06/29 05:22:33;;;;;;;0.40;0.40;;;;;;;9.73;100.00;100105.34;4985789;28;20045;-78
2022/06/29 05:24:58;;;;;;;0.40;0.40;;;;;;;9.78;100.00;100105.63;5003264;28;20042;-78
2022/06/29 05:27:24;;;;;;;0.30;0.30;;;;;;;9.76;100.00;100108.50;5005367;28;20033;-76
2022/06/29 05:29:49;;;;;;;0.30;0.30;;;;;;;9.74;100.00;100110.56;5008607;28;20030;-77
2022/06/29 05:32:15;;;;;;;0.30;0.30;;;;;;;9.62;100.00;100106.66;5005955;28;20390;-80
2022/06/29 05:34:40;;;;;;;0.30;0.30;;;;;;;9.49;100.00;100109.16;5002684;28;20407;-79
2022/06/29 05:37:06;;;;;;;0.30;0.30;;;;;;;9.43;100.00;100111.56;4989399;28;20046;-78
2022/06/29 05:39:32;;;;;;;0.30;0.30;;;;;;;9.50;100.00;100100.94;5009334;28;20037;-77
2022/06/29 05:41:57;;;;;;;0.40;0.40;;;;;;;9.64;100.00;100105.47;4990838;28;20042;-78
2022/06/29 05:44:23;;;;;;;0.40;0.40;;;;;;;9.77;100.00;100112.03;4984121;28;20557;-77
2022/06/29 05:46:48;;;;;;;0.30;0.30;;;;;;;9.90;100.00;100096.09;4991897;28;20030;-78
2022/06/29 05:49:14;;;;;;;0.35;0.35;;;;;;;10.58;100.00;100102.03;4986012;28;20040;-79
2022/06/29 05:51:40;;;;;;;0.40;0.40;;;;;;;12.11;100.00;100097.69;4997779;28;20095;-78
2022/06/29 05:54:05;;;;;;;0.40;0.40;;;;;;;13.22;100.00;100112.59;5001061;28;20030;-80
2022/06/29 05:56:31;;;;;;;0.45;0.45;;;;;;;14.70;100.00;100108.13;4969734;28;20461;-78
2022/06/29 05:58:56;;;;;;;0.40;0.40;;;;;;;15.21;100.00;100113.56;5004515;28;20480;-78
2022/06/29 06:01:22;;;;;;;0.35;0.35;;;;;;;15.60;99.76;100110.47;4994677;28;20543;-77
2022/06/29 06:03:47;;;;;;;0.30;0.30;;;;;;;14.48;100.00;100115.72;5002377;28;20554;-79
2022/06/29 06:06:13;;;;;;;0.40;0.40;;;;;;;13.95;100.00;100107.88;5002076;28;20475;-78
2022/06/29 06:08:38;;;;;;;0.30;0.30;;;;;;;13.65;100.00;100112.94;5013985;28;20428;-79
2022/06/29 06:11:04;;;;;;;0.25;0.25;;;;;;;13.08;100.00;100112.59;4999218;28;20053;-77
2022/06/29 06:13:37;;;;;;;0.32;0.32;;;;;;;12.59;100.00;100110.25;4993660;28;20034;-77
2022/06/29 06:16:03;;;;;;;;;;;;;;;12.22;100.00;100118.66;4993416;28;20113;-79
2022/06/29 06:18:29;;;;;;;0.30;0.30;;;;;;;12.03;100.00;100108.66;4989673;28;20346;-78
2022/06/29 06:20:55;;;;;;;0.30;0.30;;;;;;;12.09;100.00;100111.38;4995865;28;20034;-78
2022/06/29 06:23:20;;;;;;;0.40;0.40;;;;;;;12.33;100.00;100125.31;4989811;28;20038;-80
2022/06/29 06:25:46;;;;;;;0.40;0.40;;;;;;;12.68;100.00;100123.34;4980677;28;20096;-76
2022/06/29 06:28:12;;;;;;;0.40;0.40;;;;;;;13.00;100.00;100114.66;4994987;28;20033;-79
2022/06/29 06:30:38;;;;;;;0.30;0.30;;;;;;;13.03;100.00;100115.06;4979677;28;20042;-80
2022/06/29 06:33:03;;;;;;;0.30;0.30;;;;;;;13.06;100.00;100120.06;4985492;28;20400;-79
2022/06/29 06:35:32;;;;;;;0.30;0.30;;;;;;;13.26;100.00;100121.91;4967850;28;20078;-78
2022/06/29 06:37:57;;;;;;;0.40;0.40;;;;;;;13.12;100.00;100127.31;4999583;28;20040;-80
2022/06/29 06:43:07;;;;;;;0.30;0.30;;;;;;;12.75;100.00;100126.91;5010089;28;20049;-80
2022/06/29 06:45:33;;;;;;;0.30;0.30;;;;;;;12.68;100.00;100139.53;4968959;28;20498;-82
2022/06/29 06:47:59;;;;;;;0.30;0.30;;;;;;;12.69;100.00;100140.38;4969834;28;20038;-79
2022/06/29 06:50:24;;;;;;;0.40;0.40;;;;;;;12.77;100.00;100138.28;4991311;28;20042;-79
2022/06/29 06:52:51;;;;;;;0.30;0.30;;;;;;;12.75;100.00;100137.69;5006108;28;20042;-77
2022/06/29 06:55:16;;;;;;;0.30;0.30;;;;;;;12.85;100.00;100142.66;5001642;28;20041;-80
2022/06/29 06:57:42;;;;;;;0.40;0.40;;;;;;;13.12;100.00;100138.09;4998763;28;20042;-78
2022/06/29 07:00:09;;;;;;;0.30;0.30;;;;;;;13.41;100.00;100144.16;5000079;28;20089;-80
2022/06/29 07:02:35;;;;;;;0.40;0.40;;;;;;;13.50;100.00;100131.28;4979330;28;20463;-79
2022/06/29 07:05:02;;;;;;;0.30;0.30;;;;;;;13.56;100.00;100146.63;5002591;28;20048;-80
2022/06/29 07:07:28;;;;;;;0.40;0.40;;;;;;;13.59;100.00;100144.34;5008564;28;20052;-76
2022/06/29 07:09:53;;;;;;;0.50;0.50;;;;;;;13.70;100.00;100147.44;5015032;28;20470;-80
2022/06/29 07:12:22;;;;;;;0.40;0.40;;;;;;;13.75;100.00;100144.94;4971844;28;20046;-79
2022/06/29 07:14:48;;;;;;;0.40;0.40;;;;;;;13.87;100.00;100156.75;5003722;28;20367;-77
2022/06/29 07:17:13;;;;;;;0.40;0.40;;;;;;;13.96;100.00;100149.25;4971394;28;20095;-79
2022/06/29 07:19:40;;;;;;;0.30;0.30;;;;;;;14.13;100.00;100152.28;5002677;28;20030;-78
2022/06/29 07:22:05;;;;;;;0.40;0.40;;;;;;;14.20;100.00;100163.91;4986294;28;20120;-78
2022/06/29 07:24:32;;;;;;;0.47;0.47;;;;;;;14.25;100.00;100156.00;5011168;28;20520;-81
2022/06/29 07:27:00;;;;;;;0.40;0.40;;;;;;;14.31;100.00;100157.84;5008324;28;20128;-77
2022/06/29 07:29:25;;;;;;;0.77;0.77;;;;;;;14.44;100.00;100159.66;5001116;28;20080;-77
2022/06/29 07:31:51;;;;;;;1.20;0.60;;;;;;;14.88;100.00;100161.50;4988668;28;20034;-77
2022/06/29 07:34:17;;;;;;;0.40;0.40;;;;;;;15.90;100.00;100158.53;4989717;28;20030;-77
2022/06/29 07:36:45;;;;;;;0.60;0.60;;;;;;;18.64;90.02;100150.28;4981326;28;20030;-80
2022/06/29 07:39:11;;;;;;;1.33;1.23;;;;;;;20.35;83.61;100153.47;4987575;28;20446;-80
2022/06/29 07:41:37;;;;;;;4.55;1.27;;;;;;;21.25;78.23;100156.59;4981803;28;20117;-79
2022/06/29 07:44:04;;;;;;;2.53;1.05;;;;;;;22.32;75.05;100150.97;5000873;28;20041;-79
2022/06/29 07:46:29;;;;;;;5.43;1.45;;;;;;;23.30;71.08;100151.97;5001523;28;20244;-80
2022/06/29 07:48:55;;;;;;;8.65;1.45;;;;;;;21.85;74.37;100149.88;5013048;28;20037;-79
2022/06/29 07:51:21;;;;;;;2.95;1.20;;;;;;;22.32;73.69;100143.56;5006870;28;20168;-78
2022/06/29 07:53:47;;;;;;;6.97;1.55;;;;;;;22.40;74.45;100150.44;4993349;28;20049;-79
2022/06/29 07:56:12;;;;;;;4.35;1.55;;;;;;;21.69;77.48;100150.91;5000330;28;20030;-80
2022/06/29 07:58:38;;;;;;;2.13;1.15;;;;;;;22.70;75.01;100146.13;5006036;28;20041;-79
2022/06/29 08:01:04;;;;;;;13.95;1.73;;;;;;;20.95;80.29;100147.03;5007419;28;20435;-78
2022/06/29 08:03:31;;;;;;;4.72;1.17;;;;;;;19.28;87.74;100155.50;4997506;28;20044;-81
2022/06/29 08:05:58;;;;;;;5.70;1.35;;;;;;;18.33;92.80;100160.56;4998150;28;20045;-79
2022/06/29 08:08:24;;;;;;;5.30;1.48;;;;;;;17.48;93.81;100156.53;5000461;28;20519;-79
2022/06/29 08:10:50;;;;;;;7.55;1.27;;;;;;;16.57;95.78;100155.03;5005927;28;20068;-79
2022/06/29 08:13:16;;;;;;;5.63;1.35;;;;;;;16.11;100.00;100159.97;4982473;28;20076;-77
2022/06/29 08:15:45;;;;;;;5.85;1.52;;;;;;;15.80;100.00;100158.25;5003740;28;22140;-80
2022/06/29 08:18:15;;;;;;;7.00;1.50;;;;;;;15.52;100.00;100161.41;5013277;28;20060;-79
2022/06/29 08:20:42;;;;;;;6.70;1.42;;;;;;;14.94;100.00;100144.38;5000817;28;20038;-79
2022/06/29 08:23:09;;;;;;;5.65;1.40;;;;;;;14.68;100.00;100161.63;4974657;28;20102;-79
2022/06/29 08:25:36;;;;;;;5.72;1.75;;;;;;;14.41;100.00;100158.19;5006948;28;20041;-77
2022/06/29 08:28:02;;;;;;;7.40;1.50;;;;;;;14.44;100.00;100162.34;5006289;28;20325;-80
2022/06/29 08:30:28;;;;;;;3.58;1.30;;;;;;;16.60;100.00;100163.53;5001099;28;20033;-81
2022/06/29 08:32:54;;;;;;;2.72;1.20;;;;;;;19.75;86.74;100158.72;5002445;28;20030;-80
2022/06/29 08:35:20;;;;;;;3.08;1.30;;;;;;;21.57;79.37;100162.06;5008720;28;20034;-80
2022/06/29 08:37:46;;;;;;;3.65;1.10;;;;;;;20.47;79.79;100156.88;4973416;28;20132;-78
2022/06/29 08:40:17;;;;;;;4.57;1.52;;;;;;;21.30;79.94;100165.66;4983791;28;20041;-79
2022/06/29 08:42:45;;;;;;;3.55;1.38;;;;;;;20.54;82.33;100163.00;4988721;28;20087;-80
2022/06/29 08:45:12;;;;;;;3.97;0.90;;;;;;;19.17;86.63;100176.31;5000792;28;20042;-79
2022/06/29 08:47:38;;;;;;;2.10;1.30;;;;;;;19.54;86.90;100176.63;5001941;28;20087;-79
2022/06/29 08:50:10;;;;;;;6.50;1.77;;;;;;;19.16;86.29;100171.94;4982056;28;20498;-78
2022/06/29 08:52:37;;;;;;;6.15;1.30;;;;;;;17.70;90.86;100178.53;5011016;28;20032;-80
2022/06/29 08:55:08;;;;;;;5.22;1.42;;;;;;;16.41;96.76;100192.59;4980014;28;20384;-79
2022/06/29 08:57:41;;;;;;;0.30;0.30;;;;;;;14.93;100.00;100174.38;5020081;28;20030;-79
2022/06/29 09:00:08;;;;;;;0.40;0.40;;;;;;;14.10;100.00;100195.97;4981185;28;20034;-78
2022/06/29 09:02:34;;;;;;;0.40;0.40;;;;;;;13.67;100.00;100196.50;5001218;28;20033;-78
2022/06/29 09:05:00;;;;;;;0.30;0.30;;;;;;;13.61;100.00;100204.38;5001796;28;20395;-78
2022/06/29 09:07:26;;;;;;;0.30;0.30;;;;;;;13.73;100.00;100203.75;5000864;28;20041;-76
2022/06/29 09:10:01;;;;;;;0.30;0.30;;;;;;;13.82;100.00;100200.63;5008219;28;20331;-80
2022/06/29 09:12:28;;;;;;;0.30;0.30;;;;;;;13.94;100.00;100200.78;4992446;28;20529;-80
2022/06/29 09:14:56;;;;;;;0.43;0.43;;;;;;;14.19;100.00;100208.25;5022312;28;20033;-78
2022/06/29 09:17:22;;;;;;;0.40;0.40;;;;;;;14.56;100.00;100212.06;5001144;28;20049;-78
2022/06/29 09:19:48;;;;;;;0.40;0.40;;;;;;;15.17;100.00;100216.91;5009439;28;20455;-79
2022/06/29 09:22:14;;;;;;;0.60;0.60;;;;;;;15.36;100.00;100222.41;4972000;28;20030;-79
2022/06/29 09:24:40;;;;;;;0.85;0.75;;;;;;;15.04;100.00;100194.53;4989253;28;20452;-78
2022/06/29 09:27:09;;;;;;;0.50;0.50;;;;;;;14.93;100.00;100218.53;5008283;28;20026;-79
2022/06/29 09:29:44;;;;;;;0.30;0.30;;;;;;;14.81;100.00;100219.44;4974895;28;20060;-77
2022/06/29 09:32:15;;;;;;;0.30;0.30;;;;;;;14.75;100.00;100218.44;4984135;28;20065;-76
2022/06/29 09:34:47;;;;;;;0.40;0.40;;;;;;;14.97;100.00;100207.25;4969287;28;20075;-77
2022/06/29 09:37:15;;;;;;;0.50;0.50;;;;;;;15.81;100.00;100220.34;5001312;28;20665;-76
2022/06/29 09:39:49;;;;;;;0.40;0.40;;;;;;;16.48;100.00;100203.34;5007425;28;20058;-77
2022/06/29 09:42:19;;;;;;;0.40;0.40;;;;;;;16.79;100.00;100220.53;5001998;28;20037;-77
2022/06/29 09:44:45;;;;;;;0.40;0.40;;;;;;;16.72;100.00;100207.00;5007428;28;20464;-77
2022/06/29 09:47:15;;;;;;;0.40;0.40;;;;;;;16.56;100.00;100205.75;5006564;28;20454;-76
2022/06/29 09:49:42;;;;;;;0.50;0.50;;;;;;;16.43;100.00;100212.19;4996827;28;20030;-77
2022/06/29 09:52:09;;;;;;;0.40;0.40;;;;;;;16.26;100.00;100206.53;4990798;28;20080;-77
2022/06/29 09:54:39;;;;;;;0.40;0.40;;;;;;;16.22;100.00;100210.78;4988536;28;20386;-79
2022/06/29 09:57:06;;;;;;;0.70;0.70;;;;;;;17.19;100.00;100198.22;4991183;28;20172;-77
2022/06/29 10:02:34;;;;;;;0.40;0.40;;;;;;;22.76;82.57;100208.91;5002490;28;20519;-80
2022/06/29 10:05:11;;;;;;;;;;;;;;;21.37;88.31;100216.56;5006127;28;20026;-77
2022/06/29 10:07:39;;;;;;;0.40;0.40;;;;;;;20.03;89.99;100213.38;4976199;28;19917;-78
2022/06/29 10:10:07;;;;;;;0.40;0.40;;;;;;;19.18;98.16;100204.38;4978963;28;20387;-78
2022/06/29 10:15:45;;;;;;;0.40;0.40;;;;;;;19.34;96.06;100219.94;5009476;28;20033;-79
2022/06/29 10:18:43;;;;;;;0.40;0.40;;;;;;;18.31;93.98;100219.88;4993724;28;20041;-78
2022/06/29 10:21:30;;;;;;;0.40;0.40;;;;;;;17.48;94.43;100223.66;4976424;28;20056;-78
2022/06/29 10:23:57;;;;;;;0.43;0.43;;;;;;;17.97;93.00;100219.69;4987295;28;20042;-79
2022/06/29 10:26:44;;;;;;;0.70;0.70;;;;;;;19.73;87.19;100225.50;4976711;28;20060;-79
2022/06/29 10:29:09;;;;;;;0.70;0.70;;;;;;;22.46;78.10;100230.72;4989481;28;20042;-79
2022/06/29 10:31:54;;;;;;;1.08;1.08;;;;;;;25.33;65.82;100221.00;4993042;28;20533;-80
2022/06/29 10:34:31;;;;;;;0.80;0.80;;;;;;;27.23;59.48;100218.81;4995861;28;20069;-80
2022/06/29 10:37:14;;;;;;;1.80;0.77;;;;;;;23.63;71.14;100230.97;4989288;28;20053;-78
2022/06/29 10:39:46;;;;;;;3.40;0.70;;;;;;;20.89;78.11;100230.03;5003324;28;20033;-79
2022/06/29 10:45:09;;;;;;;0.80;0.50;;;;;;;20.04;81.81;100229.50;5016822;28;20038;-80
2022/06/29 10:47:35;;;;;;;2.85;0.80;;;;;;;19.76;83.44;100227.72;5010699;28;20034;-78
2022/06/29 10:50:18;;;;;;;2.60;1.02;;;;;;;21.39;78.44;100234.38;5001623;28;20041;-80
2022/06/29 10:52:46;;;;;;;0.70;0.63;;;;;;;21.47;75.89;100222.97;5019376;28;20454;-79
2022/06/29 10:55:13;;;;;;;2.55;0.70;;;;;;;21.18;75.86;100229.78;4993472;28;20410;-80
2022/06/29 10:57:40;;;;;;;4.30;0.80;;;;;;;19.64;78.19;100225.06;5011298;28;20037;-79
2022/06/29 11:00:10;;;;;;;1.63;0.88;;;;;;;18.60;80.70;100242.53;5000221;28;20034;-79
2022/06/29 11:02:36;;;;;;;4.70;1.38;;;;;;;17.93;81.46;100242.97;4975491;28;20435;-79
2022/06/29 11:05:03;;;;;;;1.38;0.60;;;;;;;17.87;86.20;100233.06;4978956;28;20383;-80
2022/06/29 11:12:57;;;;;;;1.90;0.70;;;;;;;19.43;77.89;100245.72;5009939;28;20033;-79
2022/06/29 11:15:41;;;;;;;0.80;0.70;;;;;;;19.58;76.57;100227.94;4992106;28;20378;-80
2022/06/29 11:18:08;;;;;;;1.83;0.70;;;;;;;19.69;74.59;100247.00;5000961;28;20033;-79
2022/06/29 11:20:34;;;;;;;1.45;0.70;;;;;;;19.47;76.56;100240.59;5010362;28;20049;-80
2022/06/29 11:23:00;;;;;;;3.92;1.30;;;;;;;19.53;75.49;100234.16;4978069;28;20129;-78
2022/06/29 11:25:26;;;;;;;1.75;1.00;;;;;;;22.11;72.76;100237.63;5004972;28;20137;-79
2022/06/29 11:27:52;;;;;;;1.40;0.80;;;;;;;22.92;69.33;100230.88;4987672;28;20149;-79
2022/06/29 11:30:22;;;;;;;2.20;0.90;;;;;;;24.54;63.77;100242.88;4988468;28;20103;-80
2022/06/29 11:32:49;;;;;;;2.78;1.00;;;;;;;23.02;58.03;100255.59;4985725;28;20471;-80
2022/06/29 11:35:16;;;;;;;4.25;1.60;;;;;;;24.74;56.08;100252.97;5008752;28;20062;-79
2022/06/29 11:37:50;;;;;;;2.60;0.70;;;;;;;23.37;61.38;100246.59;4966831;28;20068;-78
2022/06/29 11:40:35;;;;;;;2.40;1.02;;;;;;;22.37;62.31;100255.88;5004651;28;20030;-79
2022/06/29 11:43:08;;;;;;;3.30;1.15;;;;;;;21.71;62.17;100267.19;5007836;28;20483;-80
2022/06/29 11:45:36;;;;;;;0.88;0.70;;;;;;;20.09;68.21;100267.81;4989566;28;20030;-81
2022/06/29 11:48:10;;;;;;;3.88;1.20;;;;;;;19.30;68.86;100273.31;5010504;28;20026;-78
2022/06/29 11:50:56;;;;;;;3.33;0.90;;;;;;;18.68;71.08;100252.19;4993012;28;20626;-79
2022/06/29 11:53:56;;;;;;;2.85;0.80;;;;;;;17.79;80.46;100257.88;5002953;28;20033;-79